This is the latest recevied weather packets stored in our database for station/object K5NWZ. If no packets are shown the sender has not sent any weather packets the latest 10 day(s).
| Time | Temp. | Humidity | Pressure | Rain* | Wind** | Luminosity | Snow |
|---|---|---|---|---|---|---|---|
| 1777937926 | 11.67° C | 67% | 1018.7 hPa | 1.27 mm | - | 28 W/m² | - |
| 1777937621 | 12.22° C | 65% | 1018.4 hPa | 1.78 mm | - | 22 W/m² | - |
| 1777937318 | 13.33° C | 60% | 1018.4 hPa | 1.27 mm | - | 17 W/m² | - |
| 1777937016 | 14.44° C | 56% | 1018.8 hPa | 1.27 mm | - | 16 W/m² | - |
| 1777936712 | 16.11° C | 46% | 1018.3 hPa | 0 mm | - | 13 W/m² | - |
| 1777936409 | 16.67° C | 43% | 1018.1 hPa | 0 mm | - | 13 W/m² | - |
| 1777936105 | 16.67° C | 40% | 1017.5 hPa | 0 mm | - | 17 W/m² | - |
| 1777935803 | 16.67° C | 38% | 1017.6 hPa | 0 mm | - | 20 W/m² | - |
| 1777935502 | 17.22° C | 37% | 1017.6 hPa | 0 mm | - | 23 W/m² | - |
| 1777935197 | 17.22° C | 37% | 1017.1 hPa | 0 mm | - | 33 W/m² | - |
| 1777934895 | 17.22° C | 36% | 1017 hPa | 0 mm | - | 55 W/m² | - |
| 1777934592 | 17.78° C | 36% | 1016.8 hPa | 0 mm | - | 89 W/m² | - |
| 1777934288 | 17.78° C | 36% | 1017 hPa | 0 mm | - | 107 W/m² | - |
| 1777933984 | 18.33° C | 35% | 1016.9 hPa | 0 mm | - | 149 W/m² | - |
| 1777933681 | 18.89° C | 33% | 1016.9 hPa | 0 mm | - | 205 W/m² | - |
| 1777933378 | 19.44° C | 34% | 1016.9 hPa | 0 mm | - | 272 W/m² | - |
| 1777933075 | 19.44° C | 35% | 1017.1 hPa | 0 mm | - | 555 W/m² | - |
| 1777932772 | 19.44° C | 34% | 1016.8 hPa | 0 mm | - | 547 W/m² | - |
| 1777932469 | 18.89° C | 35% | 1017.1 hPa | 0 mm | - | 562 W/m² | - |
| 1777932166 | 18.89° C | 37% | 1017 hPa | 0 mm | - | 516 W/m² | - |
| 1777931863 | 17.78° C | 38% | 1017.3 hPa | 0 mm | - | 591 W/m² | - |
| 1777931560 | 17.78° C | 37% | 1017.6 hPa | 0 mm | - | 213 W/m² | - |
| 1777931256 | 17.22° C | 38% | 1017.6 hPa | 0 mm | - | 259 W/m² | - |
| 1777930952 | 17.22° C | 40% | 1017.6 hPa | 0 mm | - | 253 W/m² | - |
| 1777930649 | 16.67° C | 40% | 1017.6 hPa | 0 mm | - | 194 W/m² | - |
* Rain latest hour (hover to see other rain measurements)
** Current wind speed in m/s (hover to see current wind gust speed)